createdAt,value
2019-05-28T00:01:11.146Z,4.43
2019-05-28T00:03:44.436Z,3.80
2019-05-28T00:06:13.291Z,4.33
2019-05-28T00:08:41.088Z,4.07
2019-05-28T00:11:08.882Z,4.40
2019-05-28T00:13:38.487Z,4.57
2019-05-28T00:16:09.791Z,4.27
2019-05-28T00:18:36.459Z,4.63
2019-05-28T00:21:04.305Z,4.47
2019-05-28T00:23:32.087Z,4.83
2019-05-28T00:25:59.834Z,4.97
2019-05-28T00:28:27.632Z,4.57
2019-05-28T00:30:55.641Z,4.40
2019-05-28T00:33:38.571Z,4.30
2019-05-28T00:36:06.341Z,4.50
2019-05-28T00:38:34.148Z,4.53
2019-05-28T00:41:01.930Z,4.70
2019-05-28T00:43:29.753Z,4.17
2019-05-28T00:45:57.461Z,4.83
2019-05-28T00:48:25.352Z,4.90
2019-05-28T00:50:53.104Z,4.90
2019-05-28T00:53:20.883Z,4.93
2019-05-28T00:55:49.277Z,4.93
2019-05-28T00:58:17.837Z,5.73
2019-05-28T01:00:48.322Z,5.63
2019-05-28T01:03:18.333Z,5.90
2019-05-28T01:05:46.231Z,5.37
2019-05-28T01:08:14.002Z,6.13
2019-05-28T01:10:42.297Z,6.13
2019-05-28T01:13:10.054Z,6.83
2019-05-28T01:15:38.253Z,6.50
2019-05-28T01:18:06.042Z,6.87
2019-05-28T01:20:33.851Z,6.93
2019-05-28T01:23:01.661Z,7.23
2019-05-28T01:25:48.963Z,6.27
2019-05-28T01:28:16.792Z,6.80
2019-05-28T01:30:54.870Z,6.97
2019-05-28T01:33:19.384Z,6.67
2019-05-28T01:35:47.094Z,7.13
2019-05-28T01:38:14.889Z,7.03
2019-05-28T01:40:42.874Z,6.80
2019-05-28T01:43:15.910Z,7.30
2019-05-28T01:45:43.730Z,8.33
2019-05-28T01:48:11.552Z,8.40
2019-05-28T01:50:39.321Z,8.80
2019-05-28T01:53:07.233Z,8.80
2019-05-28T01:55:35.043Z,8.53
2019-05-28T01:58:02.861Z,8.73
2019-05-28T02:00:30.588Z,8.77
2019-05-28T02:02:58.914Z,8.87
2019-05-28T02:05:26.687Z,9.20
2019-05-28T02:07:54.496Z,9.10
2019-05-28T02:10:24.059Z,10.03
2019-05-28T02:12:51.807Z,9.63
2019-05-28T02:15:21.861Z,9.87
2019-05-28T02:17:49.653Z,9.60
2019-05-28T02:20:17.569Z,9.83
2019-05-28T02:22:45.388Z,9.67
2019-05-28T02:25:13.442Z,10.00
2019-05-28T02:27:41.255Z,10.03
2019-05-28T02:30:10.409Z,10.77
2019-05-28T02:32:38.218Z,10.37
2019-05-28T02:35:07.033Z,9.97
2019-05-28T02:37:34.882Z,10.40
2019-05-28T02:40:04.145Z,10.27
2019-05-28T02:42:32.488Z,11.47
2019-05-28T02:45:00.284Z,10.63
2019-05-28T02:47:28.051Z,11.17
2019-05-28T02:49:55.863Z,10.87
2019-05-28T02:52:25.160Z,12.00
2019-05-28T02:54:53.037Z,10.87
2019-05-28T02:57:23.144Z,11.10
2019-05-28T02:59:52.500Z,11.63
2019-05-28T03:02:23.851Z,12.03
2019-05-28T03:04:55.124Z,11.30
2019-05-28T03:07:24.075Z,12.03
2019-05-28T03:09:55.732Z,12.47
2019-05-28T03:12:23.444Z,11.60
2019-05-28T03:14:51.463Z,12.73
2019-05-28T03:17:20.137Z,12.70
2019-05-28T03:19:47.939Z,12.10
2019-05-28T03:22:16.890Z,13.40
2019-05-28T03:24:48.051Z,13.47
2019-05-28T03:27:15.852Z,13.60
2019-05-28T03:29:43.641Z,13.33
2019-05-28T03:32:11.492Z,13.33
2019-05-28T03:34:42.039Z,13.23
2019-05-28T03:37:10.659Z,13.93
2019-05-28T03:39:40.912Z,13.87
2019-05-28T03:42:08.729Z,13.00
2019-05-28T03:44:36.610Z,14.03
2019-05-28T03:47:04.391Z,13.43
2019-05-28T03:49:32.327Z,14.07
2019-05-28T03:52:00.035Z,13.93
2019-05-28T03:54:28.382Z,13.53
2019-05-28T03:56:58.912Z,14.03
2019-05-28T03:59:26.734Z,14.13
2019-05-28T04:01:54.447Z,14.43
2019-05-28T04:04:22.262Z,14.53
2019-05-28T04:06:53.117Z,14.67
2019-05-28T04:09:20.924Z,14.87
2019-05-28T04:11:48.738Z,14.97
2019-05-28T04:14:16.542Z,15.03
2019-05-28T04:16:44.386Z,14.77
2019-05-28T04:19:12.469Z,14.73
2019-05-28T04:21:42.344Z,15.37
2019-05-28T04:24:10.089Z,15.57
2019-05-28T04:26:38.000Z,15.93
2019-05-28T04:29:05.789Z,15.80
2019-05-28T04:31:33.917Z,15.53
2019-05-28T04:34:01.735Z,16.63
2019-05-28T04:36:29.490Z,15.93
2019-05-28T04:38:57.288Z,16.27
2019-05-28T04:41:25.055Z,16.20
2019-05-28T04:43:53.080Z,15.20
2019-05-28T04:46:22.226Z,15.93
2019-05-28T04:48:49.963Z,16.20
2019-05-28T04:51:17.705Z,16.27
2019-05-28T04:53:45.725Z,15.77
2019-05-28T04:56:13.505Z,15.87
2019-05-28T04:58:44.059Z,15.50
2019-05-28T05:01:11.867Z,15.50
2019-05-28T05:03:39.697Z,15.60
2019-05-28T05:06:07.530Z,16.13
2019-05-28T05:08:38.067Z,16.00
2019-05-28T05:11:05.774Z,16.97
2019-05-28T05:13:35.618Z,14.90
2019-05-28T05:16:03.519Z,16.33
2019-05-28T05:18:31.354Z,15.53
2019-05-28T05:20:59.169Z,15.17
2019-05-28T05:23:27.529Z,15.87
2019-05-28T05:25:55.388Z,15.73
2019-05-28T05:28:23.333Z,15.60
2019-05-28T05:30:51.067Z,14.10
2019-05-28T05:33:20.611Z,14.93
2019-05-28T05:35:48.748Z,15.67
2019-05-28T05:38:16.756Z,15.03
2019-05-28T05:40:44.454Z,15.00
2019-05-28T05:43:12.231Z,14.07
2019-05-28T05:45:40.009Z,14.47
2019-05-28T05:48:07.784Z,14.20
2019-05-28T05:50:35.574Z,14.63
2019-05-28T05:53:03.454Z,15.23
2019-05-28T05:55:31.228Z,29.57
2019-05-28T05:57:58.975Z,16.67
2019-05-28T06:00:26.846Z,14.77
2019-05-28T06:02:55.088Z,14.27
2019-05-28T06:05:24.983Z,13.03
2019-05-28T06:07:52.757Z,14.17
2019-05-28T06:10:20.626Z,13.43
2019-05-28T06:12:48.739Z,13.77
2019-05-28T06:15:17.310Z,14.33
2019-05-28T06:17:45.067Z,12.40
2019-05-28T06:20:13.954Z,13.03
2019-05-28T06:22:41.759Z,13.37
2019-05-28T06:25:09.608Z,12.10
2019-05-28T06:27:37.408Z,13.80
2019-05-28T06:30:05.779Z,13.73
2019-05-28T06:32:35.300Z,13.00
2019-05-28T06:35:06.915Z,12.70
2019-05-28T06:37:34.722Z,13.00
2019-05-28T06:40:05.505Z,13.37
2019-05-28T06:42:38.094Z,12.87
2019-05-28T06:45:05.031Z,13.70
2019-05-28T06:47:33.538Z,12.27
2019-05-28T06:50:01.323Z,12.80
2019-05-28T06:52:29.117Z,11.93
2019-05-28T06:54:58.417Z,11.63
2019-05-28T06:57:26.544Z,11.77
2019-05-28T06:59:54.369Z,12.03
2019-05-28T07:02:22.157Z,12.23
2019-05-28T07:04:49.920Z,12.67
2019-05-28T07:07:17.842Z,12.17
2019-05-28T07:09:45.657Z,11.70
2019-05-28T07:12:13.431Z,11.97
2019-05-28T07:14:41.536Z,12.40
2019-05-28T07:17:09.232Z,11.97
2019-05-28T07:19:39.103Z,12.33
2019-05-28T07:22:06.860Z,12.57
2019-05-28T07:24:34.999Z,12.83
2019-05-28T07:27:03.170Z,13.00
2019-05-28T07:29:33.393Z,14.40
2019-05-28T07:32:01.130Z,13.57
2019-05-28T07:34:31.281Z,13.47
2019-05-28T07:36:58.686Z,13.50
2019-05-28T07:39:26.724Z,14.20
2019-05-28T07:41:54.524Z,14.00
2019-05-28T07:44:22.528Z,12.60
2019-05-28T07:46:50.281Z,13.13
2019-05-28T07:49:20.919Z,11.67
2019-05-28T07:51:48.679Z,11.87
2019-05-28T07:54:16.645Z,12.73
2019-05-28T07:56:44.385Z,12.47
2019-05-28T07:59:12.127Z,13.27
2019-05-28T08:01:40.018Z,12.93
2019-05-28T08:04:08.054Z,13.47
2019-05-28T08:06:53.466Z,12.23
2019-05-28T08:09:06.886Z,13.73
2019-05-28T08:11:34.715Z,13.10
2019-05-28T08:14:02.674Z,12.27
2019-05-28T08:16:30.500Z,11.73
2019-05-28T08:18:58.303Z,11.40
2019-05-28T08:21:26.007Z,10.03
2019-05-28T08:23:53.888Z,10.33
2019-05-28T08:26:21.675Z,9.40
2019-05-28T08:28:49.479Z,8.43
2019-05-28T08:31:21.192Z,8.57
2019-05-28T08:33:49.488Z,7.60
2019-05-28T08:36:17.316Z,7.50
2019-05-28T08:38:45.150Z,6.83
2019-05-28T08:41:12.943Z,7.50
2019-05-28T08:43:40.765Z,7.13
2019-05-28T08:46:08.520Z,7.17
2019-05-28T08:48:36.399Z,7.20
2019-05-28T08:51:04.544Z,6.63
2019-05-28T08:53:32.345Z,7.60
2019-05-28T08:56:00.129Z,8.70
2019-05-28T08:58:27.920Z,9.60
2019-05-28T09:00:55.712Z,10.97
2019-05-28T09:03:23.633Z,10.40
2019-05-28T09:05:53.770Z,11.37
2019-05-28T09:08:37.765Z,10.50
2019-05-28T09:10:51.230Z,11.17
2019-05-28T09:13:19.092Z,10.60
2019-05-28T09:15:46.882Z,10.17
2019-05-28T09:18:14.614Z,11.00
2019-05-28T09:20:42.392Z,11.70
2019-05-28T09:23:15.370Z,10.63
2019-05-28T09:25:43.134Z,11.10
2019-05-28T09:28:28.558Z,11.27
2019-05-28T09:30:40.637Z,12.20
2019-05-28T09:33:08.400Z,12.47
2019-05-28T09:35:44.479Z,8.40
2019-05-28T09:38:07.229Z,9.57
2019-05-28T09:40:49.195Z,8.97
2019-05-28T09:43:04.830Z,8.63
2019-05-28T09:45:32.824Z,9.83
2019-05-28T09:48:00.678Z,10.03
2019-05-28T09:50:30.976Z,9.07
2019-05-28T09:52:58.199Z,8.13
2019-05-28T09:55:26.012Z,5.53
2019-05-28T09:57:53.751Z,5.10
2019-05-28T10:00:24.155Z,5.27
2019-05-28T10:02:52.022Z,5.97
2019-05-28T10:05:20.528Z,7.17
2019-05-28T10:07:48.371Z,5.50
2019-05-28T10:10:16.550Z,4.73
2019-05-28T10:12:44.637Z,4.80
2019-05-28T10:15:13.118Z,5.63
2019-05-28T10:17:40.909Z,5.63
2019-05-28T10:20:09.962Z,4.40
2019-05-28T10:22:37.751Z,5.20
2019-05-28T10:25:08.089Z,5.07
2019-05-28T10:27:35.859Z,5.27
2019-05-28T10:30:06.489Z,5.80
2019-05-28T10:32:34.283Z,5.80
2019-05-28T10:35:04.173Z,5.90
2019-05-28T10:37:32.049Z,6.03
2019-05-28T10:40:00.215Z,6.37
2019-05-28T10:42:28.115Z,5.73
2019-05-28T10:44:56.098Z,6.13
2019-05-28T10:47:23.964Z,6.53
2019-05-28T10:49:51.697Z,6.20
2019-05-28T10:52:21.630Z,6.50
2019-05-28T10:54:49.657Z,7.27
2019-05-28T10:57:17.389Z,7.13
2019-05-28T10:59:45.134Z,6.97
2019-05-28T11:02:12.934Z,6.77
2019-05-28T11:04:40.728Z,7.60
2019-05-28T11:07:08.532Z,7.33
2019-05-28T11:09:36.432Z,6.50
2019-05-28T11:12:04.333Z,6.97
2019-05-28T11:14:32.350Z,6.77
2019-05-28T11:17:00.161Z,6.73
2019-05-28T11:19:27.922Z,5.77
2019-05-28T11:21:57.783Z,6.20
2019-05-28T11:24:25.678Z,5.50
2019-05-28T11:26:53.455Z,5.73
2019-05-28T11:29:21.320Z,5.07
2019-05-28T11:31:49.205Z,5.87
2019-05-28T11:34:19.992Z,5.83
2019-05-28T11:36:47.810Z,5.70
2019-05-28T11:39:35.048Z,5.30
2019-05-28T11:42:03.367Z,5.47
2019-05-28T11:44:33.774Z,5.60
2019-05-28T11:47:01.634Z,5.87
2019-05-28T11:49:29.401Z,6.20
2019-05-28T11:51:57.263Z,6.30
2019-05-28T11:54:25.059Z,5.60
2019-05-28T11:56:53.013Z,4.67
2019-05-28T11:59:20.844Z,4.73
2019-05-28T12:01:48.641Z,4.03
2019-05-28T12:04:16.517Z,4.53
2019-05-28T12:06:44.364Z,4.47
2019-05-28T12:09:12.270Z,4.33
2019-05-28T12:11:40.099Z,4.00
2019-05-28T12:14:09.334Z,4.30
2019-05-28T12:16:37.156Z,3.70
2019-05-28T12:19:04.966Z,4.13
2019-05-28T12:21:32.772Z,4.53
2019-05-28T12:24:00.814Z,5.10
2019-05-28T12:26:28.840Z,4.17
2019-05-28T12:28:57.083Z,4.10
2019-05-28T12:31:26.974Z,4.63
2019-05-28T12:33:54.985Z,4.40
2019-05-28T12:36:22.774Z,4.47
2019-05-28T12:38:53.503Z,4.20
2019-05-28T12:41:21.287Z,4.33
2019-05-28T12:43:49.367Z,4.03
2019-05-28T12:46:17.233Z,4.23
2019-05-28T12:48:45.042Z,3.90
2019-05-28T12:51:12.968Z,4.03
2019-05-28T12:53:49.836Z,3.77
2019-05-28T12:56:10.602Z,3.00
2019-05-28T12:58:43.138Z,3.27
2019-05-28T13:01:08.214Z,3.90
2019-05-28T13:03:39.258Z,3.97
2019-05-28T13:06:07.647Z,3.77
2019-05-28T13:08:35.420Z,3.80
2019-05-28T13:11:03.438Z,3.93
2019-05-28T13:13:32.505Z,3.77
2019-05-28T13:16:00.837Z,3.50
2019-05-28T13:18:28.771Z,3.77
2019-05-28T13:20:56.732Z,4.20
2019-05-28T13:23:26.611Z,4.10
2019-05-28T13:25:54.504Z,4.30
2019-05-28T13:28:22.493Z,4.20
2019-05-28T13:30:50.291Z,3.93
2019-05-28T13:33:18.160Z,3.70
2019-05-28T13:35:48.749Z,3.60
2019-05-28T13:38:26.340Z,3.90
2019-05-28T13:40:46.337Z,3.70
2019-05-28T13:43:14.399Z,3.90
2019-05-28T13:45:42.267Z,4.30
2019-05-28T13:48:10.073Z,3.33
2019-05-28T13:50:38.026Z,2.20
2019-05-28T13:53:05.956Z,2.53
2019-05-28T13:55:33.868Z,3.00
2019-05-28T13:58:01.675Z,2.80
2019-05-28T14:00:29.546Z,2.43
2019-05-28T14:02:57.353Z,2.20
2019-05-28T14:05:25.468Z,2.07
2019-05-28T14:07:53.249Z,1.80
2019-05-28T14:10:21.868Z,1.93
2019-05-28T14:12:52.155Z,1.70
2019-05-28T14:15:21.483Z,1.70
2019-05-28T14:17:49.347Z,1.90
2019-05-28T14:20:18.797Z,2.10
2019-05-28T14:22:46.665Z,1.60
2019-05-28T14:25:16.883Z,1.77
2019-05-28T14:27:44.710Z,2.20
2019-05-28T14:30:15.417Z,2.07
2019-05-28T14:32:43.384Z,2.13
2019-05-28T14:35:13.083Z,2.20
2019-05-28T14:37:40.823Z,2.60
2019-05-28T14:40:12.284Z,2.87
2019-05-28T14:42:40.101Z,2.73
2019-05-28T14:45:08.852Z,2.43
2019-05-28T14:47:36.592Z,3.07
2019-05-28T14:50:06.318Z,3.57
2019-05-28T14:52:34.179Z,3.90
2019-05-28T14:55:02.043Z,4.90
2019-05-28T14:57:29.821Z,6.10
2019-05-28T14:59:57.685Z,5.70
2019-05-28T15:02:25.513Z,5.07
2019-05-28T15:04:55.467Z,4.70
2019-05-28T15:07:23.269Z,4.27
2019-05-28T15:09:51.073Z,4.50
2019-05-28T15:12:18.944Z,3.90
2019-05-28T15:14:46.861Z,3.90
2019-05-28T15:17:14.757Z,3.43
2019-05-28T15:19:42.580Z,4.13
2019-05-28T15:22:10.342Z,4.27
2019-05-28T15:24:38.232Z,4.30
2019-05-28T15:27:06.023Z,2.30
2019-05-28T15:29:33.891Z,1.30
2019-05-28T15:32:02.423Z,1.57
2019-05-28T15:34:30.949Z,2.30
2019-05-28T15:36:58.740Z,1.80
2019-05-28T15:39:38.992Z,1.63
2019-05-28T15:41:56.231Z,1.40
2019-05-28T15:44:43.537Z,1.70
2019-05-28T15:47:11.327Z,2.00
2019-05-28T15:49:39.283Z,6.73
2019-05-28T15:52:08.106Z,2.90
2019-05-28T15:54:36.047Z,1.60
2019-05-28T15:57:04.537Z,0.97
2019-05-28T15:59:32.406Z,0.60
2019-05-28T16:02:00.220Z,1.03
2019-05-28T16:04:28.327Z,1.40
2019-05-28T16:06:56.251Z,1.20
2019-05-28T16:09:24.990Z,1.97
2019-05-28T16:11:53.343Z,1.73
2019-05-28T16:14:24.915Z,2.10
2019-05-28T16:16:53.757Z,1.97
2019-05-28T16:19:22.434Z,1.50
2019-05-28T16:21:50.932Z,1.40
2019-05-28T16:24:20.322Z,1.30
2019-05-28T16:26:48.311Z,1.60
2019-05-28T16:29:21.203Z,1.30
2019-05-28T16:31:49.884Z,1.73
2019-05-28T16:34:18.211Z,1.60
2019-05-28T16:36:47.025Z,1.50
2019-05-28T16:39:15.450Z,1.43
2019-05-28T16:41:44.045Z,1.60
2019-05-28T16:44:17.750Z,2.00
2019-05-28T16:46:46.073Z,2.40
2019-05-28T16:49:13.926Z,2.50
2019-05-28T16:51:41.775Z,2.30
2019-05-28T16:54:19.158Z,2.50
2019-05-28T16:56:39.586Z,2.87
2019-05-28T16:59:07.556Z,3.03
2019-05-28T17:01:35.354Z,2.90
2019-05-28T17:04:04.058Z,2.53
2019-05-28T17:06:32.241Z,2.20
2019-05-28T17:09:00.713Z,2.60
2019-05-28T17:11:30.893Z,2.80
2019-05-28T17:13:59.526Z,3.00
2019-05-28T17:16:27.753Z,2.80
2019-05-28T17:18:56.155Z,2.40
2019-05-28T17:21:25.655Z,2.40
2019-05-28T17:23:54.763Z,2.27
2019-05-28T17:26:26.007Z,2.60
2019-05-28T17:28:54.320Z,2.27
2019-05-28T17:31:23.133Z,2.03
2019-05-28T17:33:51.513Z,2.00
2019-05-28T17:36:20.113Z,2.90
2019-05-28T17:38:50.778Z,3.00
2019-05-28T17:41:20.142Z,2.70
2019-05-28T17:43:59.825Z,2.23
2019-05-28T17:46:31.486Z,2.30
2019-05-28T17:49:00.708Z,2.40
2019-05-28T17:51:30.224Z,2.73
2019-05-28T17:53:59.712Z,2.90
2019-05-28T17:56:31.301Z,3.87
2019-05-28T17:58:59.831Z,3.00
2019-05-28T18:01:27.597Z,2.40
2019-05-28T18:03:55.735Z,2.40
2019-05-28T18:06:23.802Z,2.60
2019-05-28T18:08:51.890Z,3.30
2019-05-28T18:11:19.972Z,2.50
2019-05-28T18:13:48.891Z,2.57
2019-05-28T18:16:17.460Z,2.50
2019-05-28T18:18:45.678Z,2.43
2019-05-28T18:21:13.707Z,2.20
2019-05-28T18:23:42.244Z,2.23
2019-05-28T18:26:10.598Z,2.90
2019-05-28T18:28:38.675Z,2.60
2019-05-28T18:31:06.988Z,2.90
2019-05-28T18:33:35.576Z,2.73
2019-05-28T18:36:03.848Z,2.80
2019-05-28T18:38:32.219Z,2.60
2019-05-28T18:41:00.357Z,2.90
2019-05-28T18:43:28.615Z,3.07
2019-05-28T18:45:56.780Z,3.20
2019-05-28T18:48:24.612Z,3.00
2019-05-28T18:50:52.977Z,3.43
2019-05-28T18:53:21.038Z,3.10
2019-05-28T18:55:49.634Z,3.57
2019-05-28T18:58:17.601Z,3.30
2019-05-28T19:00:48.685Z,3.57
2019-05-28T19:03:16.635Z,3.60
2019-05-28T19:05:44.473Z,3.40
2019-05-28T19:08:12.268Z,3.23
2019-05-28T19:10:40.902Z,3.27
2019-05-28T19:13:08.763Z,3.43
2019-05-28T19:15:36.707Z,3.57
2019-05-28T19:18:04.518Z,3.93
2019-05-28T19:20:32.450Z,3.33
2019-05-28T19:23:00.340Z,2.97
2019-05-28T19:25:28.167Z,3.20
2019-05-28T19:27:55.983Z,3.90
2019-05-28T19:30:33.001Z,3.77
2019-05-28T19:33:02.167Z,3.73
2019-05-28T19:35:29.993Z,3.87
2019-05-28T19:37:58.618Z,3.63
2019-05-28T19:40:35.532Z,3.80
2019-05-28T19:43:03.788Z,3.77
2019-05-28T19:45:31.653Z,4.03
2019-05-28T19:47:59.447Z,4.00
2019-05-28T19:50:27.380Z,4.37
2019-05-28T19:53:00.409Z,4.43
2019-05-28T19:55:31.754Z,4.07
2019-05-28T19:57:59.641Z,4.50
2019-05-28T20:00:27.873Z,4.00
2019-05-28T20:02:55.943Z,4.47
2019-05-28T20:05:23.755Z,3.90
2019-05-28T20:07:51.688Z,4.23
2019-05-28T20:10:19.853Z,4.17
2019-05-28T20:12:47.752Z,4.20
2019-05-28T20:15:16.264Z,4.20
2019-05-28T20:17:44.145Z,4.80
2019-05-28T20:20:15.605Z,4.17
2019-05-28T20:22:43.415Z,4.37
2019-05-28T20:25:12.074Z,4.40
2019-05-28T20:27:43.077Z,4.57
2019-05-28T20:30:14.603Z,4.40
2019-05-28T20:32:42.459Z,4.50
2019-05-28T20:35:10.881Z,5.00
2019-05-28T20:37:39.615Z,4.43
2019-05-28T20:40:12.166Z,4.77
2019-05-28T20:42:40.051Z,5.40
2019-05-28T20:45:08.979Z,5.50
2019-05-28T20:47:36.806Z,6.17
2019-05-28T20:50:06.376Z,6.20
2019-05-28T20:52:35.551Z,5.60
2019-05-28T20:55:04.258Z,5.20
2019-05-28T20:57:31.984Z,4.80
2019-05-28T20:59:59.803Z,5.70
2019-05-28T21:02:27.670Z,5.90
2019-05-28T21:04:56.738Z,6.90
2019-05-28T21:07:24.668Z,6.13
2019-05-28T21:09:52.408Z,7.50
2019-05-28T21:12:20.222Z,7.47
2019-05-28T21:14:48.659Z,9.27
2019-05-28T21:17:19.023Z,9.57
2019-05-28T21:19:46.808Z,11.00
2019-05-28T21:22:26.011Z,10.37
2019-05-28T21:24:44.620Z,9.20
2019-05-28T21:27:12.451Z,8.93
2019-05-28T21:29:40.145Z,7.63
2019-05-28T21:32:08.022Z,6.97
2019-05-28T21:34:35.837Z,8.17
2019-05-28T21:37:05.634Z,8.30
2019-05-28T21:39:33.325Z,7.53
2019-05-28T21:42:02.226Z,7.90
2019-05-28T21:44:30.780Z,8.17
2019-05-28T21:46:58.624Z,8.03
2019-05-28T21:49:26.534Z,7.73
2019-05-28T21:51:54.604Z,6.73
2019-05-28T21:54:22.422Z,5.50
2019-05-28T21:56:53.164Z,4.50
2019-05-28T21:59:21.254Z,4.70
2019-05-28T22:01:49.380Z,4.80
2019-05-28T22:04:17.167Z,4.60
2019-05-28T22:06:44.934Z,4.53
2019-05-28T22:09:12.697Z,4.43
2019-05-28T22:11:40.520Z,5.30
2019-05-28T22:14:08.636Z,4.70
2019-05-28T22:16:36.611Z,3.93
2019-05-28T22:19:04.638Z,5.10
2019-05-28T22:21:32.662Z,4.57
2019-05-28T22:24:00.644Z,4.23
2019-05-28T22:26:29.305Z,4.80
2019-05-28T22:28:57.369Z,4.73
2019-05-28T22:31:25.418Z,4.63
2019-05-28T22:33:53.572Z,4.50
2019-05-28T22:36:21.302Z,4.13
2019-05-28T22:39:08.919Z,4.50
2019-05-28T22:41:38.878Z,4.40
2019-05-28T22:44:07.092Z,5.90
2019-05-28T22:46:35.237Z,7.20
2019-05-28T22:49:03.369Z,7.47
2019-05-28T22:51:31.161Z,9.63
2019-05-28T22:53:59.724Z,10.60
2019-05-28T22:56:27.731Z,10.30
2019-05-28T22:58:55.561Z,9.93
2019-05-28T23:01:23.396Z,11.23
2019-05-28T23:03:51.105Z,13.57
2019-05-28T23:06:18.884Z,8.90
2019-05-28T23:08:46.683Z,8.90
2019-05-28T23:11:14.450Z,8.80
2019-05-28T23:13:46.850Z,8.20
2019-05-28T23:16:11.940Z,7.73
2019-05-28T23:18:39.771Z,7.97
2019-05-28T23:21:08.806Z,9.13
2019-05-28T23:23:36.671Z,8.70
2019-05-28T23:26:05.282Z,6.70
2019-05-28T23:28:33.163Z,7.10
2019-05-28T23:31:01.824Z,7.23
2019-05-28T23:33:29.758Z,5.90
2019-05-28T23:35:57.487Z,6.90
2019-05-28T23:38:25.545Z,10.33
2019-05-28T23:40:53.303Z,9.80
2019-05-28T23:43:21.057Z,9.93
2019-05-28T23:45:50.224Z,6.70
2019-05-28T23:48:18.545Z,6.60
2019-05-28T23:50:46.596Z,6.13
2019-05-28T23:53:14.549Z,6.37
2019-05-28T23:55:42.438Z,5.43
2019-05-28T23:58:10.221Z,5.80
